sensor_id;sensor_type;location;lat;lon;timestamp;temperature;humidity
50955;DHT22;36966;48.064;-0.792;2023-07-31T00:00:07;23.90;54.10
50955;DHT22;36966;48.064;-0.792;2023-07-31T00:02:27;23.90;54.10
50955;DHT22;36966;48.064;-0.792;2023-07-31T00:04:47;23.90;54.10
50955;DHT22;36966;48.064;-0.792;2023-07-31T00:07:07;23.90;54.10
50955;DHT22;36966;48.064;-0.792;2023-07-31T00:09:27;23.90;54.10
50955;DHT22;36966;48.064;-0.792;2023-07-31T00:11:46;23.90;54.00
50955;DHT22;36966;48.064;-0.792;2023-07-31T00:14:05;23.90;54.10
50955;DHT22;36966;48.064;-0.792;2023-07-31T00:16:24;23.90;54.10
50955;DHT22;36966;48.064;-0.792;2023-07-31T00:18:44;23.90;54.20
50955;DHT22;36966;48.064;-0.792;2023-07-31T00:21:03;23.90;54.20
50955;DHT22;36966;48.064;-0.792;2023-07-31T00:23:22;23.80;54.10
50955;DHT22;36966;48.064;-0.792;2023-07-31T00:25:41;23.90;54.20
50955;DHT22;36966;48.064;-0.792;2023-07-31T00:28:01;23.90;54.30
50955;DHT22;36966;48.064;-0.792;2023-07-31T00:30:20;23.90;54.30
50955;DHT22;36966;48.064;-0.792;2023-07-31T00:32:40;23.80;54.20
50955;DHT22;36966;48.064;-0.792;2023-07-31T00:34:59;23.80;54.30
50955;DHT22;36966;48.064;-0.792;2023-07-31T00:37:18;23.90;54.30
50955;DHT22;36966;48.064;-0.792;2023-07-31T00:39:37;23.90;54.40
50955;DHT22;36966;48.064;-0.792;2023-07-31T00:41:57;23.90;54.30
50955;DHT22;36966;48.064;-0.792;2023-07-31T00:44:16;23.80;54.40
50955;DHT22;36966;48.064;-0.792;2023-07-31T00:46:35;23.80;54.40
50955;DHT22;36966;48.064;-0.792;2023-07-31T00:48:54;23.80;54.40
50955;DHT22;36966;48.064;-0.792;2023-07-31T00:51:14;23.80;54.40
50955;DHT22;36966;48.064;-0.792;2023-07-31T00:53:33;23.80;54.40
50955;DHT22;36966;48.064;-0.792;2023-07-31T00:55:52;23.80;54.40
50955;DHT22;36966;48.064;-0.792;2023-07-31T00:58:11;23.80;54.50
50955;DHT22;36966;48.064;-0.792;2023-07-31T01:00:31;23.80;54.50
50955;DHT22;36966;48.064;-0.792;2023-07-31T01:02:50;23.80;54.50
50955;DHT22;36966;48.064;-0.792;2023-07-31T01:05:10;23.80;54.50
50955;DHT22;36966;48.064;-0.792;2023-07-31T01:07:44;23.80;54.60
50955;DHT22;36966;48.064;-0.792;2023-07-31T01:10:11;23.80;54.60
50955;DHT22;36966;48.064;-0.792;2023-07-31T01:12:34;23.80;54.60
50955;DHT22;36966;48.064;-0.792;2023-07-31T01:15:06;23.80;54.60
50955;DHT22;36966;48.064;-0.792;2023-07-31T01:17:28;23.80;54.60
50955;DHT22;36966;48.064;-0.792;2023-07-31T01:19:47;23.70;54.70
50955;DHT22;36966;48.064;-0.792;2023-07-31T01:27:15;23.70;54.70
50955;DHT22;36966;48.064;-0.792;2023-07-31T01:29:38;23.80;54.80
50955;DHT22;36966;48.064;-0.792;2023-07-31T01:31:58;23.80;54.80
50955;DHT22;36966;48.064;-0.792;2023-07-31T01:34:20;23.70;54.90
50955;DHT22;36966;48.064;-0.792;2023-07-31T01:36:40;23.70;54.80
50955;DHT22;36966;48.064;-0.792;2023-07-31T01:38:59;23.70;54.90
50955;DHT22;36966;48.064;-0.792;2023-07-31T01:41:19;23.70;54.90
50955;DHT22;36966;48.064;-0.792;2023-07-31T01:43:38;23.70;54.90
50955;DHT22;36966;48.064;-0.792;2023-07-31T01:45:58;23.70;54.90
50955;DHT22;36966;48.064;-0.792;2023-07-31T01:48:17;23.70;55.00
50955;DHT22;36966;48.064;-0.792;2023-07-31T01:50:36;23.70;55.00
50955;DHT22;36966;48.064;-0.792;2023-07-31T01:52:55;23.70;55.00
50955;DHT22;36966;48.064;-0.792;2023-07-31T01:55:15;23.70;55.00
50955;DHT22;36966;48.064;-0.792;2023-07-31T01:57:34;23.80;55.10
50955;DHT22;36966;48.064;-0.792;2023-07-31T01:59:53;23.70;55.10
50955;DHT22;36966;48.064;-0.792;2023-07-31T02:02:12;23.70;55.20
50955;DHT22;36966;48.064;-0.792;2023-07-31T02:04:32;23.70;55.20
50955;DHT22;36966;48.064;-0.792;2023-07-31T02:06:52;23.70;55.20
50955;DHT22;36966;48.064;-0.792;2023-07-31T02:09:11;23.70;55.20
50955;DHT22;36966;48.064;-0.792;2023-07-31T02:11:30;23.70;55.30
50955;DHT22;36966;48.064;-0.792;2023-07-31T02:13:50;23.70;55.20
50955;DHT22;36966;48.064;-0.792;2023-07-31T02:16:09;23.70;55.30
50955;DHT22;36966;48.064;-0.792;2023-07-31T02:18:28;23.70;55.30
50955;DHT22;36966;48.064;-0.792;2023-07-31T02:20:50;23.70;55.30
50955;DHT22;36966;48.064;-0.792;2023-07-31T02:23:10;23.70;55.40
50955;DHT22;36966;48.064;-0.792;2023-07-31T02:25:29;23.70;55.30
50955;DHT22;36966;48.064;-0.792;2023-07-31T02:27:48;23.70;55.30
50955;DHT22;36966;48.064;-0.792;2023-07-31T02:30:07;23.70;55.40
50955;DHT22;36966;48.064;-0.792;2023-07-31T02:32:27;23.70;55.50
50955;DHT22;36966;48.064;-0.792;2023-07-31T02:34:46;23.70;55.50
50955;DHT22;36966;48.064;-0.792;2023-07-31T02:37:05;23.70;55.50
50955;DHT22;36966;48.064;-0.792;2023-07-31T02:39:24;23.70;55.50
50955;DHT22;36966;48.064;-0.792;2023-07-31T02:41:44;23.70;55.50
50955;DHT22;36966;48.064;-0.792;2023-07-31T02:44:03;23.70;55.50
50955;DHT22;36966;48.064;-0.792;2023-07-31T02:46:22;23.70;55.50
50955;DHT22;36966;48.064;-0.792;2023-07-31T02:48:44;23.70;55.50
50955;DHT22;36966;48.064;-0.792;2023-07-31T02:51:03;23.70;55.60
50955;DHT22;36966;48.064;-0.792;2023-07-31T02:53:22;23.60;55.50
50955;DHT22;36966;48.064;-0.792;2023-07-31T02:55:42;23.70;55.60
50955;DHT22;36966;48.064;-0.792;2023-07-31T02:58:01;23.60;55.60
50955;DHT22;36966;48.064;-0.792;2023-07-31T03:00:20;23.70;55.60
50955;DHT22;36966;48.064;-0.792;2023-07-31T03:02:39;23.60;55.60
50955;DHT22;36966;48.064;-0.792;2023-07-31T03:04:59;23.60;55.60
50955;DHT22;36966;48.064;-0.792;2023-07-31T03:07:18;23.70;55.60
50955;DHT22;36966;48.064;-0.792;2023-07-31T03:09:37;23.60;55.70
50955;DHT22;36966;48.064;-0.792;2023-07-31T03:11:56;23.60;55.70
50955;DHT22;36966;48.064;-0.792;2023-07-31T03:14:15;23.70;55.70
50955;DHT22;36966;48.064;-0.792;2023-07-31T03:16:35;23.70;55.70
50955;DHT22;36966;48.064;-0.792;2023-07-31T03:18:54;23.60;55.70
50955;DHT22;36966;48.064;-0.792;2023-07-31T03:21:14;23.60;55.70
50955;DHT22;36966;48.064;-0.792;2023-07-31T03:23:33;23.60;55.70
50955;DHT22;36966;48.064;-0.792;2023-07-31T03:25:59;23.60;55.80
50955;DHT22;36966;48.064;-0.792;2023-07-31T03:28:18;23.60;55.80
50955;DHT22;36966;48.064;-0.792;2023-07-31T03:30:38;23.60;55.80
50955;DHT22;36966;48.064;-0.792;2023-07-31T03:32:57;23.60;55.80
50955;DHT22;36966;48.064;-0.792;2023-07-31T03:35:16;23.60;55.80
50955;DHT22;36966;48.064;-0.792;2023-07-31T03:37:36;23.60;55.80
50955;DHT22;36966;48.064;-0.792;2023-07-31T03:39:55;23.60;55.90
50955;DHT22;36966;48.064;-0.792;2023-07-31T03:42:14;23.60;55.90
50955;DHT22;36966;48.064;-0.792;2023-07-31T03:44:33;23.60;55.90
50955;DHT22;36966;48.064;-0.792;2023-07-31T03:46:53;23.60;55.90
50955;DHT22;36966;48.064;-0.792;2023-07-31T03:49:12;23.60;55.90
50955;DHT22;36966;48.064;-0.792;2023-07-31T03:51:31;23.60;55.90
50955;DHT22;36966;48.064;-0.792;2023-07-31T03:53:51;23.60;56.60
50955;DHT22;36966;48.064;-0.792;2023-07-31T03:56:10;23.40;57.30
50955;DHT22;36966;48.064;-0.792;2023-07-31T03:58:30;23.30;57.50
50955;DHT22;36966;48.064;-0.792;2023-07-31T04:00:49;23.30;57.30
50955;DHT22;36966;48.064;-0.792;2023-07-31T04:03:08;23.30;57.20
50955;DHT22;36966;48.064;-0.792;2023-07-31T04:05:29;23.30;57.20
50955;DHT22;36966;48.064;-0.792;2023-07-31T04:07:48;23.30;57.20
50955;DHT22;36966;48.064;-0.792;2023-07-31T04:10:08;23.30;57.10
50955;DHT22;36966;48.064;-0.792;2023-07-31T04:12:27;23.40;57.10
50955;DHT22;36966;48.064;-0.792;2023-07-31T04:14:46;23.30;57.10
50955;DHT22;36966;48.064;-0.792;2023-07-31T04:17:05;23.30;57.10
50955;DHT22;36966;48.064;-0.792;2023-07-31T04:19:24;23.30;57.10
50955;DHT22;36966;48.064;-0.792;2023-07-31T04:21:44;23.40;57.10
50955;DHT22;36966;48.064;-0.792;2023-07-31T04:24:03;23.30;57.10
50955;DHT22;36966;48.064;-0.792;2023-07-31T04:26:22;23.40;57.10
50955;DHT22;36966;48.064;-0.792;2023-07-31T04:28:41;23.30;57.10
50955;DHT22;36966;48.064;-0.792;2023-07-31T04:31:00;23.30;57.10
50955;DHT22;36966;48.064;-0.792;2023-07-31T04:33:20;23.40;57.10
50955;DHT22;36966;48.064;-0.792;2023-07-31T04:35:39;23.30;57.10
50955;DHT22;36966;48.064;-0.792;2023-07-31T04:37:58;23.30;57.20
50955;DHT22;36966;48.064;-0.792;2023-07-31T04:40:17;23.30;57.20
50955;DHT22;36966;48.064;-0.792;2023-07-31T04:42:37;23.20;57.30
50955;DHT22;36966;48.064;-0.792;2023-07-31T04:44:56;23.30;57.40
50955;DHT22;36966;48.064;-0.792;2023-07-31T04:47:15;23.30;57.30
50955;DHT22;36966;48.064;-0.792;2023-07-31T04:49:35;23.30;57.30
50955;DHT22;36966;48.064;-0.792;2023-07-31T04:51:54;23.30;57.30
50955;DHT22;36966;48.064;-0.792;2023-07-31T04:54:13;23.30;57.40
50955;DHT22;36966;48.064;-0.792;2023-07-31T04:56:34;23.20;57.50
50955;DHT22;36966;48.064;-0.792;2023-07-31T04:58:53;23.20;57.40
50955;DHT22;36966;48.064;-0.792;2023-07-31T05:01:13;23.30;57.40
50955;DHT22;36966;48.064;-0.792;2023-07-31T05:03:32;23.20;57.50
50955;DHT22;36966;48.064;-0.792;2023-07-31T05:05:51;23.20;57.50
50955;DHT22;36966;48.064;-0.792;2023-07-31T05:08:10;23.20;57.60
50955;DHT22;36966;48.064;-0.792;2023-07-31T05:10:30;23.20;57.50
50955;DHT22;36966;48.064;-0.792;2023-07-31T05:12:49;23.20;57.60
50955;DHT22;36966;48.064;-0.792;2023-07-31T05:15:08;23.20;57.60
50955;DHT22;36966;48.064;-0.792;2023-07-31T05:17:28;23.20;57.60
50955;DHT22;36966;48.064;-0.792;2023-07-31T05:19:47;23.20;57.60
50955;DHT22;36966;48.064;-0.792;2023-07-31T05:22:06;23.20;57.60
50955;DHT22;36966;48.064;-0.792;2023-07-31T05:24:25;23.30;57.50
50955;DHT22;36966;48.064;-0.792;2023-07-31T05:26:45;23.30;57.40
50955;DHT22;36966;48.064;-0.792;2023-07-31T05:29:04;23.30;57.40
50955;DHT22;36966;48.064;-0.792;2023-07-31T05:31:23;23.30;57.30
50955;DHT22;36966;48.064;-0.792;2023-07-31T05:33:43;23.30;57.30
50955;DHT22;36966;48.064;-0.792;2023-07-31T05:36:02;23.30;57.20
50955;DHT22;36966;48.064;-0.792;2023-07-31T05:38:21;23.30;57.20
50955;DHT22;36966;48.064;-0.792;2023-07-31T05:40:42;23.30;57.20
50955;DHT22;36966;48.064;-0.792;2023-07-31T05:43:01;23.30;57.20
50955;DHT22;36966;48.064;-0.792;2023-07-31T05:45:20;23.40;57.20
50955;DHT22;36966;48.064;-0.792;2023-07-31T05:47:40;23.40;57.10
50955;DHT22;36966;48.064;-0.792;2023-07-31T05:49:59;23.30;57.20
50955;DHT22;36966;48.064;-0.792;2023-07-31T05:52:18;23.40;57.20
50955;DHT22;36966;48.064;-0.792;2023-07-31T05:54:37;23.40;57.20
50955;DHT22;36966;48.064;-0.792;2023-07-31T05:56:57;23.40;57.20
50955;DHT22;36966;48.064;-0.792;2023-07-31T05:59:16;23.40;57.20
50955;DHT22;36966;48.064;-0.792;2023-07-31T06:01:35;23.40;57.20
50955;DHT22;36966;48.064;-0.792;2023-07-31T06:03:55;23.30;57.10
50955;DHT22;36966;48.064;-0.792;2023-07-31T06:06:14;23.40;57.20
50955;DHT22;36966;48.064;-0.792;2023-07-31T06:08:33;23.40;57.10
50955;DHT22;36966;48.064;-0.792;2023-07-31T06:10:52;23.40;57.20
50955;DHT22;36966;48.064;-0.792;2023-07-31T06:13:12;23.40;57.20
50955;DHT22;36966;48.064;-0.792;2023-07-31T06:15:31;23.40;57.20
50955;DHT22;36966;48.064;-0.792;2023-07-31T06:17:50;23.40;57.20
50955;DHT22;36966;48.064;-0.792;2023-07-31T06:20:10;23.40;57.20
50955;DHT22;36966;48.064;-0.792;2023-07-31T06:22:29;23.40;57.20
50955;DHT22;36966;48.064;-0.792;2023-07-31T06:24:48;23.40;57.30
50955;DHT22;36966;48.064;-0.792;2023-07-31T06:27:07;23.40;57.20
50955;DHT22;36966;48.064;-0.792;2023-07-31T06:29:27;23.40;57.20
50955;DHT22;36966;48.064;-0.792;2023-07-31T06:31:46;23.40;57.30
50955;DHT22;36966;48.064;-0.792;2023-07-31T06:34:05;23.40;57.40
50955;DHT22;36966;48.064;-0.792;2023-07-31T06:36:24;23.40;57.30
50955;DHT22;36966;48.064;-0.792;2023-07-31T06:38:44;23.40;57.30
50955;DHT22;36966;48.064;-0.792;2023-07-31T06:41:03;23.40;57.40
50955;DHT22;36966;48.064;-0.792;2023-07-31T06:43:23;23.40;57.20
50955;DHT22;36966;48.064;-0.792;2023-07-31T06:45:42;23.40;57.30
50955;DHT22;36966;48.064;-0.792;2023-07-31T06:48:02;23.40;57.40
50955;DHT22;36966;48.064;-0.792;2023-07-31T06:50:21;23.40;57.30
50955;DHT22;36966;48.064;-0.792;2023-07-31T06:52:41;23.40;57.40
50955;DHT22;36966;48.064;-0.792;2023-07-31T06:55:04;23.40;57.40
50955;DHT22;36966;48.064;-0.792;2023-07-31T06:57:36;23.40;57.50
50955;DHT22;36966;48.064;-0.792;2023-07-31T06:59:56;23.40;57.40
50955;DHT22;36966;48.064;-0.792;2023-07-31T07:02:15;23.40;57.40
50955;DHT22;36966;48.064;-0.792;2023-07-31T07:04:34;23.40;57.50
50955;DHT22;36966;48.064;-0.792;2023-07-31T07:06:54;23.40;57.50
50955;DHT22;36966;48.064;-0.792;2023-07-31T07:09:13;23.40;57.50
50955;DHT22;36966;48.064;-0.792;2023-07-31T07:11:32;23.40;57.50
50955;DHT22;36966;48.064;-0.792;2023-07-31T07:13:52;23.40;57.50
50955;DHT22;36966;48.064;-0.792;2023-07-31T07:16:11;23.40;57.50
50955;DHT22;36966;48.064;-0.792;2023-07-31T07:18:30;23.40;57.50
50955;DHT22;36966;48.064;-0.792;2023-07-31T07:20:50;23.40;57.50
50955;DHT22;36966;48.064;-0.792;2023-07-31T07:23:09;23.40;57.60
50955;DHT22;36966;48.064;-0.792;2023-07-31T07:25:29;23.40;57.70
50955;DHT22;36966;48.064;-0.792;2023-07-31T07:27:48;23.40;57.60
50955;DHT22;36966;48.064;-0.792;2023-07-31T07:30:07;23.40;57.70
50955;DHT22;36966;48.064;-0.792;2023-07-31T07:32:27;23.40;57.60
50955;DHT22;36966;48.064;-0.792;2023-07-31T07:34:47;23.40;57.70
50955;DHT22;36966;48.064;-0.792;2023-07-31T07:37:07;23.40;57.70
50955;DHT22;36966;48.064;-0.792;2023-07-31T07:39:26;23.40;57.70
50955;DHT22;36966;48.064;-0.792;2023-07-31T07:41:45;23.40;57.70
50955;DHT22;36966;48.064;-0.792;2023-07-31T07:44:04;23.40;57.70
50955;DHT22;36966;48.064;-0.792;2023-07-31T07:46:24;23.40;57.70
50955;DHT22;36966;48.064;-0.792;2023-07-31T07:48:43;23.40;57.80
50955;DHT22;36966;48.064;-0.792;2023-07-31T07:51:02;23.40;57.80
50955;DHT22;36966;48.064;-0.792;2023-07-31T07:53:22;23.40;57.80
50955;DHT22;36966;48.064;-0.792;2023-07-31T07:55:41;23.40;57.80
50955;DHT22;36966;48.064;-0.792;2023-07-31T07:58:00;23.40;57.80
50955;DHT22;36966;48.064;-0.792;2023-07-31T08:00:20;23.40;57.80
50955;DHT22;36966;48.064;-0.792;2023-07-31T08:02:40;23.40;57.70
50955;DHT22;36966;48.064;-0.792;2023-07-31T08:04:59;23.40;57.80
50955;DHT22;36966;48.064;-0.792;2023-07-31T08:07:18;23.40;57.80
50955;DHT22;36966;48.064;-0.792;2023-07-31T08:09:37;23.40;57.80
50955;DHT22;36966;48.064;-0.792;2023-07-31T08:11:56;23.40;57.90
50955;DHT22;36966;48.064;-0.792;2023-07-31T08:14:21;23.40;57.90
50955;DHT22;36966;48.064;-0.792;2023-07-31T08:16:40;23.40;57.90
50955;DHT22;36966;48.064;-0.792;2023-07-31T08:18:59;23.40;58.00
50955;DHT22;36966;48.064;-0.792;2023-07-31T08:21:18;23.40;58.00
50955;DHT22;36966;48.064;-0.792;2023-07-31T08:23:37;23.40;58.00
50955;DHT22;36966;48.064;-0.792;2023-07-31T08:25:57;23.40;58.10
50955;DHT22;36966;48.064;-0.792;2023-07-31T08:28:16;23.40;58.00
50955;DHT22;36966;48.064;-0.792;2023-07-31T08:30:36;23.40;58.00
50955;DHT22;36966;48.064;-0.792;2023-07-31T08:32:55;23.40;57.90
50955;DHT22;36966;48.064;-0.792;2023-07-31T08:35:15;23.40;58.00
50955;DHT22;36966;48.064;-0.792;2023-07-31T08:37:34;23.40;58.10
50955;DHT22;36966;48.064;-0.792;2023-07-31T08:39:53;23.40;58.10
50955;DHT22;36966;48.064;-0.792;2023-07-31T08:42:13;23.40;58.00
50955;DHT22;36966;48.064;-0.792;2023-07-31T08:44:32;23.50;58.10
50955;DHT22;36966;48.064;-0.792;2023-07-31T08:46:52;23.40;58.10
50955;DHT22;36966;48.064;-0.792;2023-07-31T08:49:12;23.50;58.10
50955;DHT22;36966;48.064;-0.792;2023-07-31T08:51:32;23.40;58.10
50955;DHT22;36966;48.064;-0.792;2023-07-31T08:53:52;23.40;58.10
50955;DHT22;36966;48.064;-0.792;2023-07-31T08:56:12;23.40;58.10
50955;DHT22;36966;48.064;-0.792;2023-07-31T08:58:33;23.40;58.20
50955;DHT22;36966;48.064;-0.792;2023-07-31T09:00:54;23.40;58.10
50955;DHT22;36966;48.064;-0.792;2023-07-31T09:03:15;23.40;58.10
50955;DHT22;36966;48.064;-0.792;2023-07-31T09:05:35;23.40;58.20
50955;DHT22;36966;48.064;-0.792;2023-07-31T09:07:56;23.40;58.10
50955;DHT22;36966;48.064;-0.792;2023-07-31T09:10:15;23.40;58.20
50955;DHT22;36966;48.064;-0.792;2023-07-31T09:12:35;23.40;58.10
50955;DHT22;36966;48.064;-0.792;2023-07-31T09:14:56;23.40;58.20
50955;DHT22;36966;48.064;-0.792;2023-07-31T09:17:15;23.40;58.20
50955;DHT22;36966;48.064;-0.792;2023-07-31T09:19:37;23.40;58.10
50955;DHT22;36966;48.064;-0.792;2023-07-31T09:21:56;23.50;58.20
50955;DHT22;36966;48.064;-0.792;2023-07-31T09:24:26;23.40;58.30
50955;DHT22;36966;48.064;-0.792;2023-07-31T09:26:45;23.40;58.60
50955;DHT22;36966;48.064;-0.792;2023-07-31T09:29:05;23.40;58.60
50955;DHT22;36966;48.064;-0.792;2023-07-31T09:33:55;23.30;58.70
50955;DHT22;36966;48.064;-0.792;2023-07-31T09:36:15;23.30;58.90
50955;DHT22;36966;48.064;-0.792;2023-07-31T09:38:35;23.30;58.90
50955;DHT22;36966;48.064;-0.792;2023-07-31T09:40:54;23.30;58.80
50955;DHT22;36966;48.064;-0.792;2023-07-31T09:43:18;23.40;58.70
50955;DHT22;36966;48.064;-0.792;2023-07-31T09:45:39;23.40;58.70
50955;DHT22;36966;48.064;-0.792;2023-07-31T09:47:58;23.40;58.70
50955;DHT22;36966;48.064;-0.792;2023-07-31T09:50:19;23.40;58.70
50955;DHT22;36966;48.064;-0.792;2023-07-31T09:52:38;23.40;58.70
50955;DHT22;36966;48.064;-0.792;2023-07-31T09:54:58;23.40;58.70
50955;DHT22;36966;48.064;-0.792;2023-07-31T09:57:17;23.40;58.60
50955;DHT22;36966;48.064;-0.792;2023-07-31T09:59:36;23.40;58.70
50955;DHT22;36966;48.064;-0.792;2023-07-31T10:01:55;23.40;58.70
50955;DHT22;36966;48.064;-0.792;2023-07-31T10:04:15;23.40;58.70
50955;DHT22;36966;48.064;-0.792;2023-07-31T10:06:35;23.40;58.70
50955;DHT22;36966;48.064;-0.792;2023-07-31T10:08:55;23.40;58.60
50955;DHT22;36966;48.064;-0.792;2023-07-31T10:11:15;23.40;58.60
50955;DHT22;36966;48.064;-0.792;2023-07-31T10:13:35;23.40;58.80
50955;DHT22;36966;48.064;-0.792;2023-07-31T10:15:54;23.40;58.90
50955;DHT22;36966;48.064;-0.792;2023-07-31T10:18:17;23.40;58.80
50955;DHT22;36966;48.064;-0.792;2023-07-31T10:20:37;23.40;58.90
50955;DHT22;36966;48.064;-0.792;2023-07-31T10:22:56;23.40;59.10
50955;DHT22;36966;48.064;-0.792;2023-07-31T10:25:15;23.40;59.00
50955;DHT22;36966;48.064;-0.792;2023-07-31T10:27:36;23.40;59.40
50955;DHT22;36966;48.064;-0.792;2023-07-31T10:29:57;23.40;59.40
50955;DHT22;36966;48.064;-0.792;2023-07-31T10:32:17;23.40;60.70
50955;DHT22;36966;48.064;-0.792;2023-07-31T10:34:38;23.20;61.20
50955;DHT22;36966;48.064;-0.792;2023-07-31T10:39:37;23.30;60.90
50955;DHT22;36966;48.064;-0.792;2023-07-31T10:41:59;23.30;61.30
50955;DHT22;36966;48.064;-0.792;2023-07-31T10:44:18;23.30;60.90
50955;DHT22;36966;48.064;-0.792;2023-07-31T10:46:38;23.30;60.90
50955;DHT22;36966;48.064;-0.792;2023-07-31T10:48:58;23.40;61.70
50955;DHT22;36966;48.064;-0.792;2023-07-31T10:51:18;23.20;62.00
50955;DHT22;36966;48.064;-0.792;2023-07-31T10:53:39;23.20;61.60
50955;DHT22;36966;48.064;-0.792;2023-07-31T10:55:59;23.30;62.40
50955;DHT22;36966;48.064;-0.792;2023-07-31T10:58:19;23.20;62.70
50955;DHT22;36966;48.064;-0.792;2023-07-31T11:00:42;23.20;62.70
50955;DHT22;36966;48.064;-0.792;2023-07-31T11:03:03;23.20;62.30
50955;DHT22;36966;48.064;-0.792;2023-07-31T11:05:25;23.30;62.20
50955;DHT22;36966;48.064;-0.792;2023-07-31T11:07:59;23.30;62.50
50955;DHT22;36966;48.064;-0.792;2023-07-31T11:10:19;23.30;62.00
50955;DHT22;36966;48.064;-0.792;2023-07-31T11:12:38;23.40;61.90
50955;DHT22;36966;48.064;-0.792;2023-07-31T11:14:58;23.40;61.90
50955;DHT22;36966;48.064;-0.792;2023-07-31T11:17:17;23.40;61.70
50955;DHT22;36966;48.064;-0.792;2023-07-31T11:19:36;23.40;61.60
50955;DHT22;36966;48.064;-0.792;2023-07-31T11:21:56;23.40;61.70
50955;DHT22;36966;48.064;-0.792;2023-07-31T11:24:16;23.40;61.90
50955;DHT22;36966;48.064;-0.792;2023-07-31T11:26:35;23.40;61.70
50955;DHT22;36966;48.064;-0.792;2023-07-31T11:28:54;23.40;61.90
50955;DHT22;36966;48.064;-0.792;2023-07-31T11:31:14;23.40;61.90
50955;DHT22;36966;48.064;-0.792;2023-07-31T11:33:33;23.40;62.10
50955;DHT22;36966;48.064;-0.792;2023-07-31T11:35:52;23.40;62.10
50955;DHT22;36966;48.064;-0.792;2023-07-31T11:38:11;23.40;62.80
50955;DHT22;36966;48.064;-0.792;2023-07-31T11:40:31;23.40;62.20
50955;DHT22;36966;48.064;-0.792;2023-07-31T11:42:50;23.40;62.00
50955;DHT22;36966;48.064;-0.792;2023-07-31T11:45:10;23.40;62.00
50955;DHT22;36966;48.064;-0.792;2023-07-31T11:47:29;23.40;62.30
50955;DHT22;36966;48.064;-0.792;2023-07-31T11:49:49;23.40;61.90
50955;DHT22;36966;48.064;-0.792;2023-07-31T11:52:09;23.50;62.00
50955;DHT22;36966;48.064;-0.792;2023-07-31T11:54:29;23.50;62.10
50955;DHT22;36966;48.064;-0.792;2023-07-31T11:56:48;23.40;62.30
50955;DHT22;36966;48.064;-0.792;2023-07-31T11:59:08;23.50;62.50
50955;DHT22;36966;48.064;-0.792;2023-07-31T12:01:27;23.40;62.70
50955;DHT22;36966;48.064;-0.792;2023-07-31T12:03:47;23.40;62.50
50955;DHT22;36966;48.064;-0.792;2023-07-31T12:06:06;23.50;62.60
50955;DHT22;36966;48.064;-0.792;2023-07-31T12:08:26;23.50;62.80
50955;DHT22;36966;48.064;-0.792;2023-07-31T12:10:45;23.50;62.40
50955;DHT22;36966;48.064;-0.792;2023-07-31T12:13:07;23.50;62.40
50955;DHT22;36966;48.064;-0.792;2023-07-31T12:15:34;23.50;62.40
50955;DHT22;36966;48.064;-0.792;2023-07-31T12:17:53;23.50;62.20
50955;DHT22;36966;48.064;-0.792;2023-07-31T12:20:13;23.50;62.40
50955;DHT22;36966;48.064;-0.792;2023-07-31T12:22:32;23.50;62.40
50955;DHT22;36966;48.064;-0.792;2023-07-31T12:24:51;23.50;62.50
50955;DHT22;36966;48.064;-0.792;2023-07-31T12:27:14;23.40;62.60
50955;DHT22;36966;48.064;-0.792;2023-07-31T12:29:34;23.50;62.40
50955;DHT22;36966;48.064;-0.792;2023-07-31T12:31:53;23.50;62.30
50955;DHT22;36966;48.064;-0.792;2023-07-31T12:34:16;23.50;62.30
50955;DHT22;36966;48.064;-0.792;2023-07-31T12:36:37;23.50;62.20
50955;DHT22;36966;48.064;-0.792;2023-07-31T12:38:58;23.50;62.30
50955;DHT22;36966;48.064;-0.792;2023-07-31T12:41:18;23.50;62.30
50955;DHT22;36966;48.064;-0.792;2023-07-31T12:43:38;23.50;62.60
50955;DHT22;36966;48.064;-0.792;2023-07-31T12:45:57;23.50;62.80
50955;DHT22;36966;48.064;-0.792;2023-07-31T12:48:16;23.50;62.60
50955;DHT22;36966;48.064;-0.792;2023-07-31T12:50:36;23.50;62.80
50955;DHT22;36966;48.064;-0.792;2023-07-31T12:52:56;23.50;63.20
50955;DHT22;36966;48.064;-0.792;2023-07-31T12:55:16;23.40;63.30
50955;DHT22;36966;48.064;-0.792;2023-07-31T12:57:35;23.40;63.00
50955;DHT22;36966;48.064;-0.792;2023-07-31T12:59:54;23.50;63.30
50955;DHT22;36966;48.064;-0.792;2023-07-31T13:02:13;23.40;63.00
50955;DHT22;36966;48.064;-0.792;2023-07-31T13:04:33;23.50;63.00
50955;DHT22;36966;48.064;-0.792;2023-07-31T13:06:52;23.50;63.00
50955;DHT22;36966;48.064;-0.792;2023-07-31T13:09:11;23.50;63.40
50955;DHT22;36966;48.064;-0.792;2023-07-31T13:11:31;23.50;63.30
50955;DHT22;36966;48.064;-0.792;2023-07-31T13:13:50;23.50;63.50
50955;DHT22;36966;48.064;-0.792;2023-07-31T13:16:09;23.50;63.60
50955;DHT22;36966;48.064;-0.792;2023-07-31T13:18:29;23.50;63.60
50955;DHT22;36966;48.064;-0.792;2023-07-31T13:20:48;23.60;64.10
50955;DHT22;36966;48.064;-0.792;2023-07-31T13:23:07;23.60;63.80
50955;DHT22;36966;48.064;-0.792;2023-07-31T13:25:26;23.60;64.30
50955;DHT22;36966;48.064;-0.792;2023-07-31T13:27:46;23.60;64.40
50955;DHT22;36966;48.064;-0.792;2023-07-31T13:30:06;23.60;64.10
50955;DHT22;36966;48.064;-0.792;2023-07-31T13:32:25;23.60;64.00
50955;DHT22;36966;48.064;-0.792;2023-07-31T13:34:45;23.50;64.70
50955;DHT22;36966;48.064;-0.792;2023-07-31T13:37:04;23.50;64.10
50955;DHT22;36966;48.064;-0.792;2023-07-31T13:39:25;23.60;63.90
50955;DHT22;36966;48.064;-0.792;2023-07-31T13:41:44;23.60;64.00
50955;DHT22;36966;48.064;-0.792;2023-07-31T13:44:03;23.50;65.10
50955;DHT22;36966;48.064;-0.792;2023-07-31T13:46:22;23.40;65.00
50955;DHT22;36966;48.064;-0.792;2023-07-31T13:48:42;23.40;64.50
50955;DHT22;36966;48.064;-0.792;2023-07-31T13:51:01;23.50;64.40
50955;DHT22;36966;48.064;-0.792;2023-07-31T13:53:20;23.50;64.50
50955;DHT22;36966;48.064;-0.792;2023-07-31T13:55:40;23.50;64.40
50955;DHT22;36966;48.064;-0.792;2023-07-31T13:57:59;23.50;64.50
50955;DHT22;36966;48.064;-0.792;2023-07-31T14:00:19;23.50;64.40
50955;DHT22;36966;48.064;-0.792;2023-07-31T14:02:38;23.50;64.40
50955;DHT22;36966;48.064;-0.792;2023-07-31T14:04:57;23.50;64.50
50955;DHT22;36966;48.064;-0.792;2023-07-31T14:07:17;23.50;64.60
50955;DHT22;36966;48.064;-0.792;2023-07-31T14:09:36;23.50;64.20
50955;DHT22;36966;48.064;-0.792;2023-07-31T14:11:55;23.50;64.50
50955;DHT22;36966;48.064;-0.792;2023-07-31T14:14:14;23.50;64.50
50955;DHT22;36966;48.064;-0.792;2023-07-31T14:16:34;23.50;64.30
50955;DHT22;36966;48.064;-0.792;2023-07-31T14:18:53;23.50;64.30
50955;DHT22;36966;48.064;-0.792;2023-07-31T14:21:12;23.50;64.20
50955;DHT22;36966;48.064;-0.792;2023-07-31T14:23:31;23.50;64.20
50955;DHT22;36966;48.064;-0.792;2023-07-31T14:25:51;23.50;64.40
50955;DHT22;36966;48.064;-0.792;2023-07-31T14:28:10;23.50;64.30
50955;DHT22;36966;48.064;-0.792;2023-07-31T14:30:30;23.50;64.30
50955;DHT22;36966;48.064;-0.792;2023-07-31T14:32:49;23.50;64.30
50955;DHT22;36966;48.064;-0.792;2023-07-31T14:35:08;23.50;64.90
50955;DHT22;36966;48.064;-0.792;2023-07-31T14:37:34;23.50;64.50